createdAt,value
2022-12-20T00:01:14.382Z,25.08
2022-12-20T00:04:05.504Z,24.02
2022-12-20T00:06:54.515Z,25.48
2022-12-20T00:09:43.533Z,26.60
2022-12-20T00:12:31.684Z,24.55
2022-12-20T00:15:18.912Z,25.00
2022-12-20T00:18:07.849Z,26.45
2022-12-20T00:21:03.351Z,27.10
2022-12-20T00:23:52.220Z,26.30
2022-12-20T00:26:40.223Z,24.40
2022-12-20T00:29:27.688Z,21.50
2022-12-20T00:32:15.147Z,25.45
2022-12-20T00:35:03.559Z,25.70
2022-12-20T00:37:52.521Z,24.35
2022-12-20T00:40:40.518Z,23.27
2022-12-20T00:43:28.293Z,24.35
2022-12-20T00:46:16.470Z,20.52
2022-12-20T00:49:03.994Z,24.75
2022-12-20T00:51:52.595Z,25.17
2022-12-20T00:54:39.914Z,27.45
2022-12-20T00:57:27.326Z,23.83
2022-12-20T01:00:15.337Z,23.62
2022-12-20T01:03:03.139Z,22.93
2022-12-20T01:05:58.186Z,23.55
2022-12-20T01:08:45.636Z,21.57
2022-12-20T01:11:35.710Z,24.92
2022-12-20T01:14:23.575Z,24.72
2022-12-20T01:17:11.193Z,26.02
2022-12-20T01:19:58.460Z,22.60
2022-12-20T01:22:47.803Z,23.77
2022-12-20T01:25:34.995Z,23.27
2022-12-20T01:28:24.090Z,24.35
2022-12-20T01:31:13.761Z,24.80
2022-12-20T01:34:01.657Z,24.90
2022-12-20T01:36:49.506Z,25.57
2022-12-20T01:39:36.987Z,24.30
2022-12-20T01:42:24.577Z,26.70
2022-12-20T01:45:14.935Z,25.45
2022-12-20T01:48:02.872Z,25.70
2022-12-20T01:50:53.970Z,24.12
2022-12-20T01:53:42.889Z,24.27
2022-12-20T01:56:30.166Z,25.97
2022-12-20T01:59:18.082Z,25.05
2022-12-20T02:02:08.709Z,25.70
2022-12-20T02:04:56.354Z,25.27
2022-12-20T02:07:46.629Z,24.43
2022-12-20T02:10:48.858Z,23.87
2022-12-20T02:13:44.720Z,25.23
2022-12-20T02:16:35.297Z,22.13
2022-12-20T02:19:49.709Z,22.07
2022-12-20T02:22:58.599Z,23.73
2022-12-20T02:26:00.906Z,21.37
2022-12-20T02:29:09.443Z,22.67
2022-12-20T02:32:02.840Z,22.60
2022-12-20T02:34:50.675Z,24.72
2022-12-20T02:37:39.735Z,22.87
2022-12-20T02:40:30.439Z,24.00
2022-12-20T02:43:36.142Z,23.32
2022-12-20T02:46:26.712Z,23.10
2022-12-20T02:49:17.126Z,23.52
2022-12-20T02:52:06.372Z,22.48
2022-12-20T02:54:55.998Z,24.37
2022-12-20T02:58:01.336Z,24.67
2022-12-20T03:00:55.279Z,24.80
2022-12-20T03:03:43.213Z,25.43
2022-12-20T03:06:30.723Z,24.60
2022-12-20T03:09:18.099Z,25.00
2022-12-20T03:12:05.936Z,23.38
2022-12-20T03:14:56.053Z,23.30
2022-12-20T03:17:43.812Z,24.40
2022-12-20T03:20:31.242Z,24.87
2022-12-20T03:23:18.493Z,24.65
2022-12-20T03:26:05.911Z,24.63
2022-12-20T03:28:53.705Z,24.57
2022-12-20T03:31:41.292Z,24.00
2022-12-20T03:34:28.686Z,23.75
2022-12-20T03:37:16.617Z,24.75
2022-12-20T03:40:03.960Z,21.57
2022-12-20T03:42:52.391Z,21.77
2022-12-20T03:45:39.580Z,23.55
2022-12-20T03:48:27.341Z,22.00
2022-12-20T03:51:14.897Z,20.62
2022-12-20T03:54:02.475Z,22.60
2022-12-20T03:56:50.123Z,21.70
2022-12-20T03:59:37.893Z,23.20
2022-12-20T04:02:25.489Z,21.52
2022-12-20T04:05:13.115Z,25.40
2022-12-20T04:08:00.512Z,24.07
2022-12-20T04:11:07.506Z,23.42
2022-12-20T04:13:55.496Z,23.62
2022-12-20T04:16:43.113Z,22.27
2022-12-20T04:19:30.126Z,22.93
2022-12-20T04:22:18.878Z,21.12
2022-12-20T04:25:06.221Z,21.17
2022-12-20T04:27:56.334Z,19.98
2022-12-20T04:30:43.717Z,21.37
2022-12-20T04:33:31.399Z,23.15
2022-12-20T04:36:18.787Z,22.98
2022-12-20T04:39:06.311Z,21.77
2022-12-20T04:41:54.353Z,22.20
2022-12-20T04:44:41.505Z,20.60
2022-12-20T04:47:28.996Z,19.80
2022-12-20T04:50:16.597Z,20.82
2022-12-20T04:53:22.919Z,21.70
2022-12-20T04:56:11.154Z,22.35
2022-12-20T04:58:59.959Z,22.90
2022-12-20T05:01:47.424Z,21.97
2022-12-20T05:04:37.545Z,20.45
2022-12-20T05:07:27.649Z,21.25
2022-12-20T05:10:14.945Z,19.32
2022-12-20T05:13:08.871Z,20.68
2022-12-20T05:15:56.166Z,22.35
2022-12-20T05:18:48.960Z,19.23
2022-12-20T05:21:52.440Z,21.75
2022-12-20T05:24:57.807Z,22.22
2022-12-20T05:27:45.375Z,21.45
2022-12-20T05:30:33.099Z,22.10
2022-12-20T05:33:20.371Z,21.57
2022-12-20T05:36:07.921Z,20.27
2022-12-20T05:39:01.773Z,19.70
2022-12-20T05:41:44.384Z,20.35
2022-12-20T05:44:31.827Z,18.52
2022-12-20T05:47:19.061Z,19.42
2022-12-20T05:50:09.251Z,20.52
2022-12-20T05:52:56.338Z,19.62
2022-12-20T05:55:54.800Z,21.00
2022-12-20T05:58:42.120Z,20.37
2022-12-20T06:01:29.856Z,22.98
2022-12-20T06:04:17.361Z,19.67
2022-12-20T06:07:05.798Z,19.10
2022-12-20T06:09:56.539Z,20.82
2022-12-20T06:12:44.200Z,19.57
2022-12-20T06:15:32.370Z,21.42
2022-12-20T06:18:19.850Z,20.08
2022-12-20T06:21:07.424Z,18.92
2022-12-20T06:23:55.064Z,20.37
2022-12-20T06:26:42.283Z,21.52
2022-12-20T06:29:30.117Z,21.37
2022-12-20T06:32:18.867Z,20.72
2022-12-20T06:35:06.503Z,21.55
2022-12-20T06:37:56.206Z,20.52
2022-12-20T06:40:43.700Z,20.43
2022-12-20T06:43:30.975Z,20.40
2022-12-20T06:46:19.634Z,20.95
2022-12-20T06:49:06.894Z,20.92
2022-12-20T06:51:57.430Z,20.08
2022-12-20T06:54:44.707Z,19.77
2022-12-20T06:57:33.111Z,19.98
2022-12-20T07:00:23.545Z,18.65
2022-12-20T07:03:10.750Z,20.68
2022-12-20T07:05:58.416Z,19.48
2022-12-20T07:08:46.716Z,19.48
2022-12-20T07:11:33.970Z,18.62
2022-12-20T07:14:23.159Z,20.08
2022-12-20T07:17:10.844Z,19.45
2022-12-20T07:19:59.095Z,18.55
2022-12-20T07:22:49.020Z,18.98
2022-12-20T07:25:36.534Z,19.05
2022-12-20T07:28:28.248Z,18.87
2022-12-20T07:31:15.789Z,18.57
2022-12-20T07:34:03.127Z,18.25
2022-12-20T07:36:50.466Z,17.73
2022-12-20T07:39:37.997Z,18.70
2022-12-20T07:42:29.036Z,19.73
2022-12-20T07:45:15.500Z,19.00
2022-12-20T07:48:09.350Z,18.82
2022-12-20T07:50:58.060Z,16.02
2022-12-20T07:53:48.563Z,17.07
2022-12-20T07:56:41.534Z,17.65
2022-12-20T07:59:32.135Z,16.95
2022-12-20T08:02:25.387Z,20.55
2022-12-20T08:05:13.672Z,17.52
2022-12-20T08:08:03.900Z,17.60
2022-12-20T08:10:55.170Z,18.70
2022-12-20T08:13:46.524Z,19.30
2022-12-20T08:16:31.798Z,19.90
2022-12-20T08:19:19.277Z,20.27
2022-12-20T08:22:07.013Z,20.75
2022-12-20T08:24:57.358Z,20.43
2022-12-20T08:27:44.865Z,18.77
2022-12-20T08:30:35.257Z,20.43
2022-12-20T08:33:24.238Z,20.50
2022-12-20T08:36:14.635Z,20.08
2022-12-20T08:39:06.851Z,20.57
2022-12-20T08:41:55.791Z,23.80
2022-12-20T08:44:45.020Z,21.07
2022-12-20T08:47:32.305Z,22.37
2022-12-20T08:50:20.011Z,18.15
2022-12-20T08:53:07.887Z,19.87
2022-12-20T08:55:57.152Z,19.85
2022-12-20T08:58:45.431Z,21.82
2022-12-20T09:01:34.133Z,20.15
2022-12-20T09:04:25.591Z,19.50
2022-12-20T09:07:13.549Z,18.92
2022-12-20T09:10:00.952Z,20.37
2022-12-20T09:12:48.192Z,24.32
2022-12-20T09:15:36.781Z,21.87
2022-12-20T09:18:25.524Z,19.55
2022-12-20T09:21:13.029Z,20.40
2022-12-20T09:24:00.322Z,19.17
2022-12-20T09:26:50.314Z,18.45
2022-12-20T09:29:36.679Z,18.95
2022-12-20T09:32:25.362Z,18.50
2022-12-20T09:35:16.551Z,20.90
2022-12-20T09:38:01.525Z,21.45
2022-12-20T09:40:53.854Z,19.52
2022-12-20T09:43:41.771Z,20.17
2022-12-20T09:46:29.544Z,20.85
2022-12-20T09:49:20.210Z,19.07
2022-12-20T09:52:23.949Z,18.98
2022-12-20T09:55:14.203Z,18.12
2022-12-20T09:58:19.663Z,19.57
2022-12-20T10:01:24.652Z,15.25
2022-12-20T10:04:20.247Z,18.17
2022-12-20T10:07:38.303Z,22.85
2022-12-20T10:10:38.043Z,19.45
2022-12-20T10:13:37.562Z,16.67
2022-12-20T10:16:27.793Z,18.02
2022-12-20T10:19:22.410Z,17.40
2022-12-20T10:22:27.912Z,17.37
2022-12-20T10:25:22.958Z,17.55
2022-12-20T10:28:16.676Z,15.40
2022-12-20T10:31:16.047Z,15.32
2022-12-20T10:34:03.668Z,17.27
2022-12-20T10:36:54.197Z,16.52
2022-12-20T10:39:44.034Z,16.30
2022-12-20T10:42:38.195Z,15.80
2022-12-20T10:45:40.229Z,18.67
2022-12-20T10:48:30.748Z,16.12
2022-12-20T10:51:23.446Z,15.98
2022-12-20T10:54:16.758Z,14.87
2022-12-20T10:57:24.198Z,14.45
2022-12-20T11:00:14.773Z,13.53
2022-12-20T11:03:08.357Z,15.55
2022-12-20T11:05:59.556Z,14.73
2022-12-20T11:08:53.969Z,14.20
2022-12-20T11:11:37.153Z,14.90
2022-12-20T11:14:25.434Z,12.98
2022-12-20T11:17:24.114Z,13.85
2022-12-20T11:20:32.721Z,12.37
2022-12-20T11:23:49.865Z,16.30
2022-12-20T11:27:15.144Z,10.68
2022-12-20T11:30:06.889Z,20.60
2022-12-20T11:33:12.476Z,17.23
2022-12-20T11:36:06.128Z,14.05
2022-12-20T11:39:20.047Z,14.05
2022-12-20T11:42:16.717Z,13.90
2022-12-20T11:45:25.443Z,14.45
2022-12-20T11:48:35.744Z,14.75
2022-12-20T11:51:31.822Z,14.78
2022-12-20T11:54:30.604Z,14.53
2022-12-20T11:57:22.125Z,14.30
2022-12-20T12:00:17.975Z,13.85
2022-12-20T12:03:17.749Z,13.50
2022-12-20T12:06:11.146Z,13.40
2022-12-20T12:09:13.867Z,13.98
2022-12-20T12:12:18.737Z,14.45
2022-12-20T12:15:22.247Z,15.58
2022-12-20T12:18:27.691Z,15.85
2022-12-20T12:21:26.957Z,15.28
2022-12-20T12:24:35.338Z,15.50
2022-12-20T12:27:28.942Z,15.13
2022-12-20T12:30:18.297Z,16.15
2022-12-20T12:33:08.733Z,13.48
2022-12-20T12:36:24.754Z,13.88
2022-12-20T12:39:23.259Z,13.90
2022-12-20T12:42:25.477Z,14.43
2022-12-20T12:45:31.614Z,15.80
2022-12-20T12:48:37.101Z,15.58
2022-12-20T12:51:36.463Z,15.63
2022-12-20T12:54:32.465Z,17.07
2022-12-20T12:57:20.684Z,14.78
2022-12-20T13:00:11.053Z,15.28
2022-12-20T13:02:58.306Z,15.45
2022-12-20T13:05:45.929Z,15.13
2022-12-20T13:08:36.587Z,16.70
2022-12-20T13:11:46.929Z,15.98
2022-12-20T13:14:37.676Z,17.17
2022-12-20T13:17:28.470Z,16.75
2022-12-20T13:20:33.634Z,15.15
2022-12-20T13:23:23.613Z,15.72
2022-12-20T13:26:46.193Z,16.23
2022-12-20T13:29:40.312Z,15.32
2022-12-20T13:32:49.994Z,16.70
2022-12-20T13:35:46.563Z,16.05
2022-12-20T13:38:45.911Z,18.20
2022-12-20T13:41:48.435Z,16.17
2022-12-20T13:44:38.743Z,15.98
2022-12-20T13:47:41.356Z,16.40
2022-12-20T13:50:36.363Z,16.25
2022-12-20T13:53:28.702Z,15.35
2022-12-20T13:56:32.193Z,14.78
2022-12-20T13:59:26.844Z,15.50
2022-12-20T14:02:24.927Z,15.32
2022-12-20T14:05:26.565Z,17.07
2022-12-20T14:08:23.710Z,17.65
2022-12-20T14:11:18.451Z,19.35
2022-12-20T14:14:07.577Z,18.40
2022-12-20T14:16:55.121Z,19.27
2022-12-20T14:19:42.406Z,19.07
2022-12-20T14:22:30.712Z,18.30
2022-12-20T14:25:22.529Z,18.12
2022-12-20T14:28:26.799Z,15.45
2022-12-20T14:31:24.338Z,16.73
2022-12-20T14:34:14.552Z,16.07
2022-12-20T14:37:33.911Z,15.48
2022-12-20T14:40:25.052Z,15.13
2022-12-20T14:43:16.581Z,16.20
2022-12-20T14:46:22.723Z,14.28
2022-12-20T14:49:37.336Z,13.48
2022-12-20T14:52:36.732Z,15.80
2022-12-20T14:55:33.880Z,15.50
2022-12-20T14:58:35.234Z,14.10
2022-12-20T15:01:31.189Z,17.95
2022-12-20T15:04:35.687Z,12.80
2022-12-20T15:07:33.012Z,12.88
2022-12-20T15:10:20.114Z,13.83
2022-12-20T15:13:16.592Z,15.25
2022-12-20T15:16:07.323Z,13.70
2022-12-20T15:18:57.820Z,14.75
2022-12-20T15:21:46.559Z,15.30
2022-12-20T15:24:33.723Z,15.38
2022-12-20T15:27:23.331Z,16.85
2022-12-20T15:30:14.553Z,15.45
2022-12-20T15:33:01.819Z,15.93
2022-12-20T15:35:49.469Z,16.40
2022-12-20T15:41:32.081Z,16.45
2022-12-20T15:44:24.044Z,17.27
2022-12-20T15:47:16.474Z,16.73
2022-12-20T15:50:04.329Z,17.80
2022-12-20T15:52:52.314Z,17.98
2022-12-20T15:55:40.264Z,14.33
2022-12-20T15:58:28.456Z,16.40
2022-12-20T16:01:19.191Z,15.20
2022-12-20T16:04:07.946Z,15.72
2022-12-20T16:06:55.346Z,15.93
2022-12-20T16:09:42.582Z,15.78
2022-12-20T16:12:33.220Z,16.17
2022-12-20T16:15:25.991Z,14.75
2022-12-20T16:18:13.134Z,15.32
2022-12-20T16:21:00.428Z,16.65
2022-12-20T16:23:50.734Z,17.62
2022-12-20T16:26:38.068Z,17.23
2022-12-20T16:29:25.462Z,18.73
2022-12-20T16:32:17.179Z,17.77
2022-12-20T16:35:05.254Z,16.93
2022-12-20T16:37:55.660Z,16.25
2022-12-20T16:40:43.200Z,16.65
2022-12-20T16:43:35.296Z,15.32
2022-12-20T16:46:24.774Z,16.50
2022-12-20T16:49:19.755Z,18.30
2022-12-20T16:52:02.094Z,18.30
2022-12-20T16:54:49.814Z,18.90
2022-12-20T16:57:37.680Z,18.17
2022-12-20T17:00:30.283Z,18.85
2022-12-20T17:03:17.799Z,18.17
2022-12-20T17:06:05.856Z,18.02
2022-12-20T17:08:54.717Z,17.55
2022-12-20T17:11:42.571Z,19.32
2022-12-20T17:14:30.001Z,19.73
2022-12-20T17:17:18.054Z,19.82
2022-12-20T17:20:05.887Z,18.48
2022-12-20T17:29:03.040Z,18.37
2022-12-20T17:31:53.492Z,17.23
2022-12-20T17:34:40.884Z,19.32
2022-12-20T17:37:28.164Z,18.32
2022-12-20T17:40:16.542Z,17.70
2022-12-20T17:43:04.040Z,19.20
2022-12-20T17:45:57.500Z,17.73
2022-12-20T17:48:45.831Z,19.70
2022-12-20T17:51:33.114Z,17.55
2022-12-20T17:54:23.728Z,18.85
2022-12-20T17:57:16.803Z,20.60
2022-12-20T18:00:05.631Z,19.87
2022-12-20T18:02:56.511Z,18.73
2022-12-20T18:05:43.837Z,18.95
2022-12-20T18:08:31.093Z,19.07
2022-12-20T18:11:19.073Z,20.10
2022-12-20T18:14:06.356Z,17.87
2022-12-20T18:16:55.934Z,17.48
2022-12-20T18:19:43.949Z,17.37
2022-12-20T18:22:34.008Z,17.82
2022-12-20T18:25:22.796Z,18.52
2022-12-20T18:28:10.156Z,19.15
2022-12-20T18:30:57.845Z,17.10
2022-12-20T18:33:51.115Z,18.42
2022-12-20T18:36:38.067Z,20.15
2022-12-20T18:39:25.933Z,16.48
2022-12-20T18:42:13.131Z,18.80
2022-12-20T18:45:00.530Z,20.20
2022-12-20T18:47:47.746Z,20.97
2022-12-20T18:50:37.158Z,16.23
2022-12-20T18:53:24.593Z,21.50
2022-12-20T18:56:17.237Z,18.35
2022-12-20T18:59:11.523Z,17.42
2022-12-20T19:01:55.649Z,20.52
2022-12-20T19:04:43.181Z,19.55
2022-12-20T19:07:30.736Z,19.98
2022-12-20T19:10:18.333Z,23.05
2022-12-20T19:13:06.269Z,20.65
2022-12-20T19:16:02.694Z,18.42
2022-12-20T19:18:50.271Z,20.10
2022-12-20T19:21:40.605Z,16.35
2022-12-20T19:24:28.569Z,17.30
2022-12-20T19:27:15.988Z,15.05
2022-12-20T19:30:05.612Z,16.02
2022-12-20T19:32:58.414Z,16.60
2022-12-20T19:35:55.417Z,14.35
2022-12-20T19:38:34.500Z,19.05
2022-12-20T19:41:23.947Z,15.78
2022-12-20T19:44:11.832Z,14.43
2022-12-20T19:47:05.651Z,18.70
2022-12-20T19:49:53.983Z,16.97
2022-12-20T19:52:42.010Z,15.65
2022-12-20T19:55:29.329Z,16.37
2022-12-20T19:58:17.722Z,15.50
2022-12-20T20:01:07.059Z,17.10
2022-12-20T20:03:56.791Z,17.67
2022-12-20T20:06:43.988Z,19.35
2022-12-20T20:09:31.753Z,15.35
2022-12-20T20:12:18.963Z,17.87
2022-12-20T20:15:06.900Z,19.37
2022-12-20T20:17:58.764Z,18.15
2022-12-20T20:20:46.236Z,16.42
2022-12-20T20:23:34.174Z,17.30
2022-12-20T20:26:24.911Z,16.23
2022-12-20T20:29:12.400Z,15.65
2022-12-20T20:31:59.549Z,16.82
2022-12-20T20:34:47.227Z,14.68
2022-12-20T20:37:34.883Z,13.05
2022-12-20T20:40:24.165Z,14.45
2022-12-20T20:43:11.904Z,13.83
2022-12-20T20:45:59.538Z,13.72
2022-12-20T20:48:46.930Z,14.00
2022-12-20T20:51:34.660Z,13.45
2022-12-20T20:54:23.826Z,13.58
2022-12-20T20:57:10.953Z,13.90
2022-12-20T20:59:58.826Z,14.18
2022-12-20T21:02:46.396Z,18.67
2022-12-20T21:08:26.349Z,18.57
2022-12-20T21:11:14.188Z,18.15
2022-12-20T21:14:01.334Z,18.20
2022-12-20T21:16:48.989Z,19.10
2022-12-20T21:19:36.535Z,18.35
2022-12-20T21:22:27.093Z,18.35
2022-12-20T21:25:16.069Z,16.05
2022-12-20T21:28:06.336Z,21.90
2022-12-20T21:31:01.455Z,18.95
2022-12-20T21:33:48.844Z,17.60
2022-12-20T21:36:36.288Z,15.78
2022-12-20T21:39:24.397Z,19.02
2022-12-20T21:42:11.651Z,18.42
2022-12-20T21:44:59.370Z,17.37
2022-12-20T21:47:46.905Z,18.45
2022-12-20T21:50:34.076Z,16.62
2022-12-20T21:53:22.779Z,17.98
2022-12-20T21:56:10.464Z,17.95
2022-12-20T21:58:57.840Z,18.27
2022-12-20T22:01:47.169Z,16.23
2022-12-20T22:04:35.693Z,15.23
2022-12-20T22:07:25.936Z,15.80
2022-12-20T22:10:13.317Z,15.03
2022-12-20T22:13:00.785Z,13.35
2022-12-20T22:15:48.446Z,15.20
2022-12-20T22:18:37.095Z,13.35
2022-12-20T22:21:29.684Z,12.53
2022-12-20T22:24:18.426Z,11.75
2022-12-20T22:27:11.188Z,14.03
2022-12-20T22:29:54.694Z,14.63
2022-12-20T22:32:42.164Z,16.62
2022-12-20T22:35:29.943Z,16.62
2022-12-20T22:38:17.362Z,17.02
2022-12-20T22:41:15.922Z,17.92
2022-12-20T22:44:04.204Z,18.17
2022-12-20T22:46:54.166Z,16.30
2022-12-20T22:49:41.948Z,15.30
2022-12-20T22:52:29.476Z,15.78
2022-12-20T22:55:18.154Z,13.43
2022-12-20T22:58:05.575Z,15.38
2022-12-20T23:00:55.970Z,14.65
2022-12-20T23:03:44.475Z,15.43
2022-12-20T23:06:31.747Z,16.50
2022-12-20T23:09:19.150Z,15.53
2022-12-20T23:12:24.831Z,16.87
2022-12-20T23:15:31.313Z,14.03
2022-12-20T23:18:18.775Z,17.10
2022-12-20T23:21:24.267Z,17.55
2022-12-20T23:24:13.058Z,16.07
2022-12-20T23:27:00.572Z,15.80
2022-12-20T23:29:49.751Z,16.87
2022-12-20T23:32:37.366Z,16.23
2022-12-20T23:35:25.704Z,16.80
2022-12-20T23:38:13.068Z,18.55
2022-12-20T23:41:00.330Z,19.48
2022-12-20T23:43:47.950Z,22.75
2022-12-20T23:46:35.657Z,20.68
2022-12-20T23:49:24.630Z,19.27
2022-12-20T23:52:12.828Z,19.45
2022-12-20T23:55:00.263Z,21.87
2022-12-20T23:57:47.744Z,18.25
